createdAt,value
2022-11-12T00:00:33.942Z,99760.69
2022-11-12T00:03:03.952Z,99754.06
2022-11-12T00:05:33.893Z,99758.41
2022-11-12T00:08:03.145Z,99753.09
2022-11-12T00:10:35.137Z,99745.31
2022-11-12T00:13:05.865Z,99747.91
2022-11-12T00:15:34.732Z,99748.72
2022-11-12T00:18:05.475Z,99753.09
2022-11-12T00:20:34.568Z,99749.06
2022-11-12T00:23:04.457Z,99753.56
2022-11-12T00:25:33.791Z,99748.38
2022-11-12T00:28:07.924Z,99751.19
2022-11-12T00:30:41.010Z,99741.75
2022-11-12T00:33:12.266Z,99742.91
2022-11-12T00:35:42.427Z,99742.63
2022-11-12T00:38:12.522Z,99746.78
2022-11-12T00:40:42.922Z,99741.00
2022-11-12T00:43:13.666Z,99747.09
2022-11-12T00:45:45.267Z,99756.78
2022-11-12T00:48:15.771Z,99749.00
2022-11-12T00:50:44.865Z,99757.09
2022-11-12T00:53:15.006Z,99748.81
2022-11-12T00:55:44.084Z,99759.31
2022-11-12T00:58:13.165Z,99759.41
2022-11-12T01:00:42.273Z,99764.50
2022-11-12T01:03:15.359Z,99768.03
2022-11-12T01:05:46.231Z,99774.03
2022-11-12T01:08:15.379Z,99775.09
2022-11-12T01:10:45.631Z,99775.31
2022-11-12T01:13:16.086Z,99773.66
2022-11-12T01:15:46.166Z,99765.16
2022-11-12T01:18:17.085Z,99768.69
2022-11-12T01:20:49.140Z,99767.88
2022-11-12T01:23:18.725Z,99771.38
2022-11-12T01:25:47.861Z,99767.75
2022-11-12T01:28:16.847Z,99759.25
2022-11-12T01:30:45.753Z,99761.03
2022-11-12T01:33:14.333Z,99756.66
2022-11-12T01:35:43.748Z,99757.44
2022-11-12T01:38:15.379Z,99757.34
2022-11-12T01:40:45.313Z,99755.50
2022-11-12T01:43:14.654Z,99759.41
2022-11-12T01:45:51.966Z,99760.03
2022-11-12T01:48:31.160Z,99765.22
2022-11-12T01:51:00.807Z,99761.69
2022-11-12T01:53:37.646Z,99763.31
2022-11-12T01:56:09.457Z,99758.59
2022-11-12T01:58:41.679Z,99764.00
2022-11-12T02:01:11.508Z,99767.50
2022-11-12T02:03:41.057Z,99766.34
2022-11-12T02:06:15.707Z,99763.06
2022-11-12T02:08:47.326Z,99764.44
2022-11-12T02:11:19.325Z,99758.19
2022-11-12T02:14:00.933Z,99755.13
2022-11-12T02:16:34.768Z,99750.75
2022-11-12T02:19:06.358Z,99759.84
2022-11-12T02:21:37.575Z,99753.94
2022-11-12T02:24:38.101Z,99752.53
2022-11-12T02:27:10.669Z,99752.84
2022-11-12T02:29:46.457Z,99742.47
2022-11-12T02:32:15.821Z,99747.28
2022-11-12T02:34:45.958Z,99745.59
2022-11-12T02:37:16.700Z,99748.28
2022-11-12T02:39:46.813Z,99747.28
2022-11-12T02:42:15.925Z,99742.31
2022-11-12T02:44:46.390Z,99738.28
2022-11-12T02:47:15.847Z,99740.97
2022-11-12T02:49:46.028Z,99736.13
2022-11-12T02:52:16.544Z,99733.63
2022-11-12T02:54:46.898Z,99734.56
2022-11-12T02:57:16.080Z,99741.72
2022-11-12T02:59:46.134Z,99739.47
2022-11-12T03:02:15.672Z,99738.63
2022-11-12T03:04:49.393Z,99736.97
2022-11-12T03:07:20.367Z,99735.31
2022-11-12T03:09:50.299Z,99726.81
2022-11-12T03:12:20.196Z,99725.38
2022-11-12T03:14:49.765Z,99730.34
2022-11-12T03:17:19.833Z,99720.19
2022-11-12T03:19:49.288Z,99711.72
2022-11-12T03:22:20.077Z,99704.88
2022-11-12T03:24:49.035Z,99710.88
2022-11-12T03:27:19.022Z,99716.06
2022-11-12T03:29:49.594Z,99703.22
2022-11-12T03:32:19.022Z,99708.19
2022-11-12T03:34:49.616Z,99705.94
2022-11-12T03:37:22.351Z,99710.28
2022-11-12T03:39:51.927Z,99708.13
2022-11-12T03:42:22.576Z,99705.53
2022-11-12T03:44:52.734Z,99709.97
2022-11-12T03:47:22.761Z,99709.88
2022-11-12T03:49:51.564Z,99705.31
2022-11-12T03:52:22.887Z,99700.13
2022-11-12T03:54:51.923Z,99703.66
2022-11-12T03:57:21.718Z,99704.69
2022-11-12T03:59:50.944Z,99693.72
2022-11-12T04:02:20.007Z,99696.09
2022-11-12T04:05:07.872Z,99695.78
2022-11-12T04:07:56.412Z,99697.66
2022-11-12T04:10:26.339Z,99694.56
2022-11-12T04:13:13.360Z,99696.44
2022-11-12T04:15:42.740Z,99690.44
2022-11-12T04:18:30.300Z,99702.44
2022-11-12T04:21:18.261Z,99703.59
2022-11-12T04:23:50.612Z,99697.03
2022-11-12T04:26:24.688Z,99703.06
2022-11-12T04:29:12.165Z,99705.78
2022-11-12T04:31:41.665Z,99700.69
2022-11-12T04:34:30.105Z,99704.94
2022-11-12T04:36:59.309Z,99705.78
2022-11-12T04:39:30.530Z,99708.44
2022-11-12T04:42:16.938Z,99704.31
2022-11-12T04:45:01.568Z,99705.97
2022-11-12T04:47:35.437Z,99698.09
2022-11-12T04:50:07.182Z,99697.25
2022-11-12T04:52:36.781Z,99701.19
2022-11-12T04:55:09.545Z,99701.53
2022-11-12T04:57:40.310Z,99701.00
2022-11-12T05:00:12.405Z,99700.78
2022-11-12T05:02:42.904Z,99692.72
2022-11-12T05:05:11.716Z,99699.97
2022-11-12T05:07:41.131Z,99693.88
2022-11-12T05:10:12.550Z,99694.38
2022-11-12T05:12:42.236Z,99695.63
2022-11-12T05:15:14.716Z,99693.03
2022-11-12T05:17:45.463Z,99692.63
2022-11-12T05:20:15.504Z,99693.75
2022-11-12T05:22:59.143Z,99694.47
2022-11-12T05:25:35.174Z,99687.97
2022-11-12T05:28:07.235Z,99687.13
2022-11-12T05:30:37.163Z,99683.41
2022-11-12T05:33:07.027Z,99675.31
2022-11-12T05:35:36.478Z,99681.97
2022-11-12T05:38:06.583Z,99673.88
2022-11-12T05:40:37.539Z,99679.44
2022-11-12T05:43:07.252Z,99685.25
2022-11-12T05:45:36.370Z,99680.72
2022-11-12T05:48:06.382Z,99681.34
2022-11-12T05:50:51.261Z,99683.91
2022-11-12T05:53:25.062Z,99692.47
2022-11-12T05:55:57.093Z,99695.38
2022-11-12T05:58:27.503Z,99700.09
2022-11-12T06:00:57.351Z,99691.53
2022-11-12T06:03:26.733Z,99695.25
2022-11-12T06:05:55.703Z,99692.84
2022-11-12T06:08:25.004Z,99701.13
2022-11-12T06:10:57.373Z,99691.72
2022-11-12T06:13:27.895Z,99693.16
2022-11-12T06:15:57.682Z,99700.72
2022-11-12T06:18:27.256Z,99702.19
2022-11-12T06:21:22.415Z,99702.59
2022-11-12T06:23:57.097Z,99711.06
2022-11-12T06:26:30.942Z,99715.09
2022-11-12T06:29:00.916Z,99719.56
2022-11-12T06:31:29.348Z,99722.44
2022-11-12T06:33:58.909Z,99723.66
2022-11-12T06:36:28.647Z,99725.00
2022-11-12T06:38:58.448Z,99730.44
2022-11-12T06:41:29.681Z,99729.81
2022-11-12T06:43:59.780Z,99740.50
2022-11-12T06:46:31.177Z,99747.38
2022-11-12T06:49:01.281Z,99753.25
2022-11-12T06:51:30.324Z,99763.03
2022-11-12T06:54:00.313Z,99765.47
2022-11-12T06:56:31.893Z,99766.69
2022-11-12T06:59:01.480Z,99769.19
2022-11-12T07:01:31.384Z,99760.22
2022-11-12T07:04:00.461Z,99765.09
2022-11-12T07:06:29.991Z,99766.84
2022-11-12T07:09:00.086Z,99770.81
2022-11-12T07:11:31.826Z,99771.25
2022-11-12T07:14:00.939Z,99776.31
2022-11-12T07:16:30.209Z,99786.34
2022-11-12T07:19:00.873Z,99781.09
2022-11-12T07:21:30.365Z,99782.75
2022-11-12T07:23:59.913Z,99781.91
2022-11-12T07:26:31.396Z,99786.78
2022-11-12T07:29:00.461Z,99794.47
2022-11-12T07:31:29.552Z,99793.34
2022-11-12T07:33:59.233Z,99782.88
2022-11-12T07:36:28.379Z,99778.47
2022-11-12T07:38:56.991Z,99782.06
2022-11-12T07:41:26.705Z,99784.44
2022-11-12T07:43:57.734Z,99787.41
2022-11-12T07:46:29.533Z,99787.41
2022-11-12T07:48:58.078Z,99787.22
2022-11-12T07:51:29.688Z,99795.09
2022-11-12T07:54:00.902Z,99786.22
2022-11-12T07:56:30.345Z,99786.00
2022-11-12T07:59:01.686Z,99793.38
2022-11-12T08:01:33.493Z,99791.41
2022-11-12T08:04:04.783Z,99785.63
2022-11-12T08:06:35.226Z,99786.03
2022-11-12T08:09:09.074Z,99787.28
2022-11-12T08:11:38.393Z,99780.91
2022-11-12T08:14:09.535Z,99783.38
2022-11-12T08:16:38.205Z,99778.75
2022-11-12T08:19:07.313Z,99781.94
2022-11-12T08:21:38.233Z,99775.53
2022-11-12T08:24:08.792Z,99774.50
2022-11-12T08:26:39.183Z,99773.56
2022-11-12T08:29:10.400Z,99776.78
2022-11-12T08:31:39.648Z,99771.28
2022-11-12T08:34:22.371Z,99777.38
2022-11-12T08:36:52.623Z,99768.69
2022-11-12T08:39:22.696Z,99779.16
2022-11-12T08:41:53.263Z,99771.28
2022-11-12T08:44:24.453Z,99774.72
2022-11-12T08:46:53.827Z,99782.34
2022-11-12T08:49:23.338Z,99784.63
2022-11-12T08:51:53.549Z,99780.19
2022-11-12T08:54:22.747Z,99774.91
2022-11-12T08:56:53.527Z,99778.81
2022-11-12T08:59:23.453Z,99776.16
2022-11-12T09:01:52.765Z,99769.81
2022-11-12T09:04:21.917Z,99775.72
2022-11-12T09:06:53.850Z,99777.16
2022-11-12T09:09:24.148Z,99765.75
2022-11-12T09:11:53.564Z,99767.34
2022-11-12T09:14:24.214Z,99759.22
2022-11-12T09:16:54.277Z,99759.13
2022-11-12T09:19:23.457Z,99761.28
2022-11-12T09:21:52.656Z,99762.94
2022-11-12T09:24:21.150Z,99756.50
2022-11-12T09:26:54.375Z,99762.81
2022-11-12T09:29:24.974Z,99761.66
2022-11-12T09:31:53.867Z,99762.28
2022-11-12T09:34:23.810Z,99760.31
2022-11-12T09:36:53.356Z,99760.09
2022-11-12T09:39:22.108Z,99753.84
2022-11-12T09:41:52.030Z,99751.03
2022-11-12T09:44:24.520Z,99755.06
2022-11-12T09:47:02.018Z,99754.75
2022-11-12T09:49:37.555Z,99755.44
2022-11-12T09:52:18.075Z,99748.19
2022-11-12T09:54:54.125Z,99752.09
2022-11-12T09:57:23.787Z,99744.91
2022-11-12T09:59:55.201Z,99740.56
2022-11-12T10:02:37.176Z,99735.75
2022-11-12T10:05:26.767Z,99729.41
2022-11-12T10:08:23.034Z,99728.94
2022-11-12T10:11:03.408Z,99728.72
2022-11-12T10:13:55.812Z,99725.19
2022-11-12T10:16:50.734Z,99720.47
2022-11-12T10:19:48.840Z,99718.72
2022-11-12T10:22:42.074Z,99720.97
2022-11-12T10:25:18.206Z,99729.22
2022-11-12T10:27:48.363Z,99727.13
2022-11-12T10:30:20.179Z,99724.22
2022-11-12T10:32:54.652Z,99721.38
2022-11-12T10:35:25.767Z,99726.44
2022-11-12T10:38:03.375Z,99732.22
2022-11-12T10:40:37.455Z,99724.22
2022-11-12T10:43:23.073Z,99717.03
2022-11-12T10:45:53.085Z,99728.00
2022-11-12T10:48:34.089Z,99712.94
2022-11-12T10:51:05.290Z,99711.78
2022-11-12T10:53:39.200Z,99708.03
2022-11-12T10:56:27.475Z,99699.84
2022-11-12T10:59:18.697Z,99701.03
2022-11-12T11:01:57.400Z,99707.66
2022-11-12T11:04:35.974Z,99710.75
2022-11-12T11:07:09.014Z,99706.84
2022-11-12T11:09:38.467Z,99701.28
2022-11-12T11:12:25.918Z,99701.75
2022-11-12T11:15:09.615Z,99692.31
2022-11-12T11:17:39.741Z,99692.06
2022-11-12T11:20:25.299Z,99688.06
2022-11-12T11:23:01.884Z,99674.94
2022-11-12T11:25:35.349Z,99675.66
2022-11-12T11:28:19.370Z,99673.50
2022-11-12T11:31:03.278Z,99676.44
2022-11-12T11:33:50.669Z,99672.41
2022-11-12T11:36:34.973Z,99662.72
2022-11-12T11:39:19.364Z,99659.75
2022-11-12T11:42:08.734Z,99645.69
2022-11-12T11:44:49.305Z,99649.56
2022-11-12T11:47:59.555Z,99648.22
2022-11-12T11:50:34.543Z,99648.00
2022-11-12T11:53:22.632Z,99651.31
2022-11-12T11:55:58.749Z,99647.75
2022-11-12T11:59:16.450Z,99644.78
2022-11-12T12:02:21.850Z,99631.66
2022-11-12T12:04:59.659Z,99636.59
2022-11-12T12:07:45.747Z,99634.72
2022-11-12T12:10:40.190Z,99628.28
2022-11-12T12:13:31.387Z,99622.97
2022-11-12T12:16:41.005Z,99629.44
2022-11-12T12:19:24.921Z,99631.78
2022-11-12T12:21:57.819Z,99632.38
2022-11-12T12:24:38.853Z,99628.56
2022-11-12T12:27:17.128Z,99628.19
2022-11-12T12:29:52.342Z,99625.34
2022-11-12T12:32:30.070Z,99626.72
2022-11-12T12:35:18.857Z,99617.72
2022-11-12T12:37:58.020Z,99615.53
2022-11-12T12:40:35.530Z,99616.00
2022-11-12T12:43:18.895Z,99614.06
2022-11-12T12:45:49.479Z,99613.69
2022-11-12T12:48:24.803Z,99603.03
2022-11-12T12:50:55.695Z,99601.94
2022-11-12T12:53:36.408Z,99600.59
2022-11-12T12:56:08.478Z,99595.81
2022-11-12T12:58:46.938Z,99598.88
2022-11-12T13:01:33.405Z,99593.28
2022-11-12T13:04:05.216Z,99594.63
2022-11-12T13:06:39.588Z,99599.34
2022-11-12T13:09:25.815Z,99595.50
2022-11-12T13:12:14.682Z,99592.38
2022-11-12T13:15:40.073Z,99598.84
2022-11-12T13:18:17.039Z,99593.91
2022-11-12T13:21:11.729Z,99592.56
2022-11-12T13:24:08.338Z,99586.94
2022-11-12T13:26:58.033Z,99581.25
2022-11-12T13:29:44.540Z,99579.03
2022-11-12T13:32:39.436Z,99575.22
2022-11-12T13:35:31.254Z,99576.72
2022-11-12T13:38:04.369Z,99571.22
2022-11-12T13:40:45.843Z,99573.44
2022-11-12T13:43:38.031Z,99577.44
2022-11-12T13:46:30.394Z,99576.19
2022-11-12T13:49:08.833Z,99578.53
2022-11-12T13:51:45.262Z,99581.69
2022-11-12T13:54:37.235Z,99572.75
2022-11-12T13:57:31.377Z,99580.31
2022-11-12T14:00:22.719Z,99585.25
2022-11-12T14:02:57.729Z,99588.41
2022-11-12T14:05:32.501Z,99580.28
2022-11-12T14:08:54.257Z,99583.72
2022-11-12T14:12:04.076Z,99573.03
2022-11-12T14:14:55.331Z,99575.63
2022-11-12T14:17:38.712Z,99566.84
2022-11-12T14:20:30.608Z,99567.69
2022-11-12T14:23:10.731Z,99564.94
2022-11-12T14:25:49.310Z,99566.56
2022-11-12T14:28:29.718Z,99566.56
2022-11-12T14:31:00.028Z,99557.78
2022-11-12T14:33:32.025Z,99560.41
2022-11-12T14:36:13.182Z,99557.78
2022-11-12T14:38:48.682Z,99550.81
2022-11-12T14:41:24.898Z,99540.50
2022-11-12T14:44:11.450Z,99544.09
2022-11-12T14:46:48.248Z,99544.34
2022-11-12T14:49:43.873Z,99538.31
2022-11-12T14:52:23.474Z,99529.13
2022-11-12T14:54:56.978Z,99529.94
2022-11-12T14:57:33.490Z,99526.50
2022-11-12T15:00:21.210Z,99529.25
2022-11-12T15:02:59.247Z,99522.38
2022-11-12T15:05:31.352Z,99513.88
2022-11-12T15:08:05.159Z,99511.28
2022-11-12T15:10:38.979Z,99516.78
2022-11-12T15:13:13.818Z,99509.22
2022-11-12T15:15:53.892Z,99501.53
2022-11-12T15:18:27.282Z,99503.59
2022-11-12T15:21:17.475Z,99499.75
2022-11-12T15:23:54.237Z,99500.72
2022-11-12T15:26:34.818Z,99491.41
2022-11-12T15:29:15.514Z,99495.09
2022-11-12T15:31:47.983Z,99490.31
2022-11-12T15:34:33.963Z,99493.19
2022-11-12T15:37:08.455Z,99492.75
2022-11-12T15:39:45.423Z,99490.31
2022-11-12T15:42:23.218Z,99494.00
2022-11-12T15:45:00.374Z,99487.28
2022-11-12T15:47:30.358Z,99481.75
2022-11-12T15:50:00.517Z,99487.53
2022-11-12T15:52:29.346Z,99487.09
2022-11-12T15:55:01.160Z,99482.31
2022-11-12T15:57:35.790Z,99478.59
2022-11-12T16:00:13.563Z,99480.66
2022-11-12T16:02:43.805Z,99471.84
2022-11-12T16:05:17.836Z,99466.25
2022-11-12T16:07:47.287Z,99468.81
2022-11-12T16:10:23.009Z,99475.50
2022-11-12T16:13:00.197Z,99478.66
2022-11-12T16:15:30.463Z,99473.97
2022-11-12T16:18:00.333Z,99484.38
2022-11-12T16:20:33.877Z,99485.44
2022-11-12T16:23:03.690Z,99481.31
2022-11-12T16:25:40.144Z,99478.03
2022-11-12T16:28:15.738Z,99489.50
2022-11-12T16:30:47.346Z,99486.22
2022-11-12T16:33:17.802Z,99488.94
2022-11-12T16:35:49.796Z,99487.59
2022-11-12T16:38:19.669Z,99484.16
2022-11-12T16:40:52.399Z,99490.31
2022-11-12T16:43:23.358Z,99485.09
2022-11-12T16:45:53.718Z,99486.75
2022-11-12T16:48:26.090Z,99491.13
2022-11-12T16:50:56.087Z,99494.81
2022-11-12T16:53:25.928Z,99492.72
2022-11-12T16:55:58.971Z,99496.03
2022-11-12T16:58:29.321Z,99496.88
2022-11-12T17:01:00.373Z,99495.78
2022-11-12T17:03:30.035Z,99496.59
2022-11-12T17:06:00.477Z,99498.09
2022-11-12T17:08:33.891Z,99490.31
2022-11-12T17:11:10.302Z,99495.38
2022-11-12T17:13:40.357Z,99490.03
2022-11-12T17:16:11.389Z,99490.75
2022-11-12T17:18:43.000Z,99489.09
2022-11-12T17:21:15.401Z,99483.19
2022-11-12T17:23:44.980Z,99489.63
2022-11-12T17:26:18.573Z,99480.16
2022-11-12T17:28:55.536Z,99486.19
2022-11-12T17:31:29.111Z,99485.22
2022-11-12T17:33:58.019Z,99485.22
2022-11-12T17:36:29.184Z,99483.44
2022-11-12T17:39:01.642Z,99487.97
2022-11-12T17:41:33.828Z,99484.66
2022-11-12T17:44:04.007Z,99488.91
2022-11-12T17:46:34.236Z,99484.81
2022-11-12T17:49:04.202Z,99494.63
2022-11-12T17:51:34.375Z,99498.44
2022-11-12T17:54:03.668Z,99491.31
2022-11-12T17:56:37.066Z,99487.38
2022-11-12T17:59:12.089Z,99484.31
2022-11-12T18:01:41.708Z,99492.13
2022-11-12T18:04:12.921Z,99487.75
2022-11-12T18:06:43.213Z,99493.19
2022-11-12T18:09:16.841Z,99487.84
2022-11-12T18:11:52.213Z,99483.38
2022-11-12T18:14:23.144Z,99482.53
2022-11-12T18:16:52.605Z,99473.78
2022-11-12T18:19:22.445Z,99475.56
2022-11-12T18:21:57.062Z,99472.13
2022-11-12T18:24:26.343Z,99476.50
2022-11-12T18:26:57.089Z,99477.03
2022-11-12T18:29:26.594Z,99473.34
2022-11-12T18:31:57.120Z,99471.13
2022-11-12T18:34:27.036Z,99469.34
2022-11-12T18:36:57.975Z,99463.59
2022-11-12T18:39:26.872Z,99458.63
2022-11-12T18:41:58.897Z,99464.38
2022-11-12T18:44:29.102Z,99455.84
2022-11-12T18:46:58.200Z,99448.75
2022-11-12T18:49:27.140Z,99456.00
2022-11-12T18:51:56.368Z,99456.13
2022-11-12T18:54:26.928Z,99457.19
2022-11-12T18:56:58.699Z,99452.00
2022-11-12T18:59:30.867Z,99455.44
2022-11-12T19:02:00.089Z,99449.78
2022-11-12T19:04:30.321Z,99456.88
2022-11-12T19:06:59.963Z,99461.16
2022-11-12T19:09:28.816Z,99450.59
2022-11-12T19:12:00.214Z,99457.34
2022-11-12T19:14:28.776Z,99455.53
2022-11-12T19:16:57.848Z,99449.53
2022-11-12T19:19:27.957Z,99447.88
2022-11-12T19:21:57.939Z,99441.88
2022-11-12T19:24:26.696Z,99440.34
2022-11-12T19:26:57.669Z,99432.25
2022-11-12T19:29:26.226Z,99429.09
2022-11-12T19:31:56.267Z,99428.09
2022-11-12T19:34:25.778Z,99429.09
2022-11-12T19:37:26.626Z,99431.91
2022-11-12T19:39:45.607Z,99431.22
2022-11-12T19:42:17.327Z,99426.28
2022-11-12T19:44:46.523Z,99425.50
2022-11-12T19:47:16.666Z,99429.78
2022-11-12T19:49:46.721Z,99429.78
2022-11-12T19:52:15.474Z,99424.63
2022-11-12T19:54:44.236Z,99423.22
2022-11-12T19:57:15.266Z,99428.16
2022-11-12T19:59:44.734Z,99421.19
2022-11-12T20:02:14.298Z,99425.47
2022-11-12T20:04:43.830Z,99422.03
2022-11-12T20:07:15.024Z,99412.00
2022-11-12T20:09:44.733Z,99411.31
2022-11-12T20:12:15.768Z,99409.81
2022-11-12T20:14:45.787Z,99407.59
2022-11-12T20:17:15.012Z,99413.03
2022-11-12T20:19:44.633Z,99410.44
2022-11-12T20:22:14.403Z,99410.53
2022-11-12T20:24:43.822Z,99406.31
2022-11-12T20:27:17.710Z,99399.72
2022-11-12T20:29:46.794Z,99395.41
2022-11-12T20:32:16.066Z,99396.25
2022-11-12T20:34:46.256Z,99393.50
2022-11-12T20:37:14.968Z,99390.56
2022-11-12T20:39:45.820Z,99392.03
2022-11-12T20:42:16.680Z,99391.19
2022-11-12T20:44:45.914Z,99399.44
2022-11-12T20:47:15.146Z,99390.00
2022-11-12T20:49:43.914Z,99389.78
2022-11-12T20:52:13.887Z,99391.22
2022-11-12T20:54:43.223Z,99386.03
2022-11-12T20:57:12.320Z,99388.06
2022-11-12T20:59:44.017Z,99390.41
2022-11-12T21:02:13.340Z,99380.13
2022-11-12T21:04:44.047Z,99379.31
2022-11-12T21:07:13.806Z,99373.53
2022-11-12T21:09:43.629Z,99376.38
2022-11-12T21:12:13.014Z,99370.34
2022-11-12T21:14:49.068Z,99374.50
2022-11-12T21:17:20.790Z,99372.94
2022-11-12T21:19:50.029Z,99370.75
2022-11-12T21:22:20.064Z,99372.63
2022-11-12T21:24:50.574Z,99370.31
2022-11-12T21:27:19.598Z,99370.06
2022-11-12T21:29:51.810Z,99357.34
2022-11-12T21:32:21.952Z,99360.19
2022-11-12T21:34:51.495Z,99362.09
2022-11-12T21:37:20.680Z,99362.91
2022-11-12T21:39:50.469Z,99364.53
2022-11-12T21:42:19.728Z,99369.72
2022-11-12T21:44:50.538Z,99362.78
2022-11-12T21:47:19.080Z,99358.56
2022-11-12T21:49:48.076Z,99356.06
2022-11-12T21:52:17.067Z,99350.78
2022-11-12T21:54:47.129Z,99342.41
2022-11-12T21:57:18.903Z,99346.78
2022-11-12T21:59:49.826Z,99332.25
2022-11-12T22:02:20.013Z,99332.16
2022-11-12T22:04:49.469Z,99341.84
2022-11-12T22:07:18.112Z,99337.69
2022-11-12T22:09:49.433Z,99336.06
2022-11-12T22:12:22.457Z,99338.75
2022-11-12T22:14:54.541Z,99341.47
2022-11-12T22:17:24.161Z,99341.34
2022-11-12T22:19:55.913Z,99330.97
2022-11-12T22:22:26.684Z,99332.06
2022-11-12T22:24:56.078Z,99320.28
2022-11-12T22:27:26.241Z,99333.75
2022-11-12T22:29:56.565Z,99329.97
2022-11-12T22:32:25.995Z,99335.03
2022-11-12T22:34:55.032Z,99331.84
2022-11-12T22:37:24.671Z,99323.50
2022-11-12T22:39:54.446Z,99321.88
2022-11-12T22:42:23.531Z,99326.31
2022-11-12T22:44:54.127Z,99323.72
2022-11-12T22:47:24.375Z,99323.97
2022-11-12T22:49:53.444Z,99326.31
2022-11-12T22:52:23.148Z,99326.09
2022-11-12T22:54:52.031Z,99325.66
2022-11-12T22:57:21.400Z,99323.06
2022-11-12T22:59:51.579Z,99320.34
2022-11-12T23:02:21.392Z,99315.97
2022-11-12T23:04:52.499Z,99316.78
2022-11-12T23:07:21.133Z,99318.81
2022-11-12T23:09:51.021Z,99314.44
2022-11-12T23:12:20.523Z,99313.50
2022-11-12T23:14:49.654Z,99314.44
2022-11-12T23:17:18.687Z,99313.50
2022-11-12T23:19:48.605Z,99314.34
2022-11-12T23:22:19.444Z,99318.69
2022-11-12T23:24:49.316Z,99301.16
2022-11-12T23:27:18.159Z,99304.81
2022-11-12T23:29:47.714Z,99295.13
2022-11-12T23:32:16.105Z,99297.72
2022-11-12T23:34:45.370Z,99288.19
2022-11-12T23:37:14.571Z,99289.81
2022-11-12T23:39:45.358Z,99287.34
2022-11-12T23:42:14.391Z,99285.59
2022-11-12T23:44:45.401Z,99274.25
2022-11-12T23:47:15.521Z,99263.91
2022-11-12T23:49:44.449Z,99259.53
2022-11-12T23:52:13.492Z,99265.56
2022-11-12T23:54:42.856Z,99258.72
2022-11-12T23:57:12.670Z,99259.44
2022-11-12T23:59:42.049Z,99257.91
